createdAt,value
2023-08-17T00:01:32.053Z,20.32
2023-08-17T00:04:36.386Z,20.24
2023-08-17T00:07:39.697Z,20.27
2023-08-17T00:10:44.394Z,20.29
2023-08-17T00:13:48.356Z,20.34
2023-08-17T00:21:20.838Z,17.66
2023-08-17T00:24:58.160Z,16.67
2023-08-17T00:35:16.872Z,15.46
2023-08-17T00:38:23.078Z,15.12
2023-08-17T00:44:54.128Z,14.90
2023-08-17T00:48:04.550Z,14.95
2023-08-17T00:51:12.653Z,14.83
2023-08-17T00:54:23.828Z,14.77
2023-08-17T00:57:30.872Z,14.87
2023-08-17T01:00:40.493Z,14.85
2023-08-17T01:03:46.647Z,14.90
2023-08-17T01:06:52.642Z,14.85
2023-08-17T01:09:55.976Z,14.85
2023-08-17T01:13:34.956Z,14.90
2023-08-17T01:16:53.399Z,14.93
2023-08-17T01:23:29.881Z,15.02
2023-08-17T01:26:36.424Z,15.02
2023-08-17T01:29:41.009Z,15.11
2023-08-17T01:33:01.800Z,15.07
2023-08-17T01:39:48.808Z,15.04
2023-08-17T01:42:55.581Z,15.10
2023-08-17T01:46:01.358Z,15.17
2023-08-17T01:49:08.195Z,15.08
2023-08-17T01:52:16.016Z,15.15
2023-08-17T01:55:24.337Z,15.17
2023-08-17T02:01:46.755Z,15.35
2023-08-17T02:04:53.209Z,15.35
2023-08-17T02:07:58.633Z,15.40
2023-08-17T02:14:24.063Z,15.35
2023-08-17T02:17:32.172Z,15.42
2023-08-17T02:20:37.375Z,15.52
2023-08-17T02:23:44.103Z,15.50
2023-08-17T02:33:26.506Z,15.74
2023-08-17T02:36:29.933Z,15.84
2023-08-17T02:42:54.452Z,16.07
2023-08-17T02:46:03.379Z,16.28
2023-08-17T02:52:23.859Z,16.79
2023-08-17T02:55:28.833Z,16.76
2023-08-17T02:58:32.303Z,16.80
2023-08-17T03:01:36.040Z,16.74
2023-08-17T03:04:40.607Z,16.77
2023-08-17T03:07:46.885Z,16.91
2023-08-17T03:10:51.196Z,17.15
2023-08-17T03:14:01.779Z,17.15
2023-08-17T03:17:06.266Z,17.32
2023-08-17T03:20:13.607Z,17.24
2023-08-17T03:23:17.508Z,17.22
2023-08-17T03:26:20.952Z,17.17
2023-08-17T03:29:25.171Z,17.07
2023-08-17T03:32:28.703Z,17.11
2023-08-17T03:35:33.672Z,17.28
2023-08-17T03:38:40.338Z,17.32
2023-08-17T03:41:46.260Z,17.19
2023-08-17T03:44:50.263Z,17.12
2023-08-17T03:47:54.375Z,17.21
2023-08-17T03:51:05.542Z,17.25
2023-08-17T03:54:09.203Z,17.21
2023-08-17T03:57:14.922Z,17.28
2023-08-17T04:00:21.166Z,17.29
2023-08-17T04:03:32.286Z,17.43
2023-08-17T04:06:37.949Z,17.52
2023-08-17T04:09:47.701Z,17.62
2023-08-17T04:12:51.601Z,17.69
2023-08-17T04:15:56.133Z,17.72
2023-08-17T04:22:29.436Z,17.96
2023-08-17T04:25:35.459Z,17.96
2023-08-17T04:28:51.542Z,17.89
2023-08-17T04:35:14.217Z,18.05
2023-08-17T04:41:46.751Z,18.48
2023-08-17T05:02:03.777Z,18.86
2023-08-17T05:11:54.952Z,19.27
2023-08-17T05:21:34.965Z,19.77
2023-08-17T05:37:51.726Z,20.57
2023-08-17T05:44:17.873Z,20.07
2023-08-17T05:47:23.120Z,19.94
2023-08-17T06:03:57.669Z,20.18
2023-08-17T06:10:23.412Z,19.74
2023-08-17T06:16:57.415Z,19.48
2023-08-17T06:20:06.744Z,19.44
2023-08-17T06:26:38.352Z,18.90
2023-08-17T06:56:34.689Z,18.56
2023-08-17T07:03:03.173Z,18.39
2023-08-17T07:16:14.469Z,18.63
2023-08-17T07:19:17.953Z,18.55
2023-08-17T07:25:49.588Z,18.37
2023-08-17T07:28:56.437Z,18.11
2023-08-17T07:32:07.349Z,18.01
2023-08-17T07:35:14.491Z,18.18
2023-08-17T07:38:20.742Z,18.27
2023-08-17T07:44:53.089Z,18.07
2023-08-17T07:48:07.937Z,18.00
2023-08-17T07:57:49.017Z,17.69
2023-08-17T08:04:17.328Z,17.79
2023-08-17T08:17:26.441Z,17.70
2023-08-17T08:27:34.535Z,17.76
2023-08-17T08:34:02.264Z,17.50
2023-08-17T08:37:10.672Z,17.43
2023-08-17T08:46:58.561Z,17.49
2023-08-17T08:53:36.292Z,17.57
2023-08-17T08:56:47.923Z,17.52
2023-08-17T09:03:15.407Z,17.55
2023-08-17T09:33:14.380Z,17.50
2023-08-17T09:39:50.775Z,17.35
2023-08-17T09:46:14.944Z,17.38
2023-08-17T09:49:21.626Z,17.40
2023-08-17T09:55:48.570Z,17.72
2023-08-17T10:06:01.961Z,17.66
2023-08-17T10:12:40.051Z,17.45
2023-08-17T10:19:56.718Z,17.35
2023-08-17T10:23:22.632Z,17.21
2023-08-17T10:33:06.283Z,17.03
2023-08-17T10:42:58.045Z,16.87
2023-08-17T10:46:22.671Z,16.90
2023-08-17T10:52:59.620Z,16.76
2023-08-17T10:59:31.679Z,16.70
2023-08-17T11:09:15.451Z,16.60
2023-08-17T11:19:27.534Z,16.36
2023-08-17T11:42:36.403Z,16.10
2023-08-17T11:52:21.389Z,15.94
2023-08-17T11:55:27.363Z,15.91
2023-08-17T11:58:45.706Z,15.93
2023-08-17T12:01:53.653Z,15.89
2023-08-17T12:08:19.904Z,15.79
2023-08-17T12:14:54.316Z,15.74
2023-08-17T12:21:24.274Z,15.60
2023-08-17T12:31:08.787Z,15.49
2023-08-17T12:34:13.748Z,15.40
2023-08-17T12:44:01.272Z,15.25
2023-08-17T12:47:06.535Z,15.27
2023-08-17T12:50:11.834Z,15.21
2023-08-17T12:59:54.894Z,15.10
2023-08-17T13:03:00.435Z,15.11
2023-08-17T13:06:09.174Z,15.04
2023-08-17T13:15:52.294Z,14.94
2023-08-17T13:18:58.398Z,14.91
2023-08-17T13:25:26.709Z,14.87
2023-08-17T13:31:51.251Z,14.80
2023-08-17T13:35:00.595Z,14.80
2023-08-17T13:38:09.920Z,14.74
2023-08-17T13:44:44.171Z,14.70
2023-08-17T13:51:07.576Z,14.76
2023-08-17T13:57:53.385Z,14.76
2023-08-17T14:10:50.206Z,14.94
2023-08-17T14:37:16.499Z,14.79
2023-08-17T14:43:40.174Z,14.79
2023-08-17T14:50:04.006Z,14.84
2023-08-17T15:03:04.000Z,14.79
2023-08-17T15:06:20.103Z,14.76
2023-08-17T15:09:32.648Z,14.77
2023-08-17T15:12:39.747Z,14.76
2023-08-17T15:15:44.961Z,14.69
2023-08-17T15:18:50.114Z,14.72
2023-08-17T15:25:11.058Z,14.72
2023-08-17T15:28:14.973Z,14.66
2023-08-17T15:31:19.738Z,14.60
2023-08-17T15:34:24.694Z,14.49
2023-08-17T15:37:28.965Z,14.52
2023-08-17T15:40:35.511Z,14.52
2023-08-17T15:43:41.434Z,14.55
2023-08-17T15:46:44.840Z,14.55
2023-08-17T15:49:48.628Z,14.59
2023-08-17T15:52:52.047Z,14.59
2023-08-17T15:56:03.147Z,14.62
2023-08-17T15:59:07.371Z,14.56
2023-08-17T16:02:11.099Z,14.59
2023-08-17T16:05:14.369Z,14.59
2023-08-17T16:08:20.602Z,14.53
2023-08-17T16:11:26.193Z,14.47
2023-08-17T16:14:29.837Z,14.42
2023-08-17T16:17:33.745Z,14.33
2023-08-17T16:20:37.381Z,14.30
2023-08-17T16:23:43.344Z,14.32
2023-08-17T16:26:47.392Z,14.30
2023-08-17T16:29:55.739Z,14.29
2023-08-17T16:32:59.586Z,14.26
2023-08-17T16:36:04.557Z,14.25
2023-08-17T16:39:08.105Z,14.18
2023-08-17T16:42:16.456Z,14.19
2023-08-17T16:45:20.474Z,14.15
2023-08-17T16:48:25.231Z,14.07
2023-08-17T16:51:29.399Z,13.97
2023-08-17T16:54:32.959Z,13.94
2023-08-17T16:57:37.182Z,13.85
2023-08-17T17:00:40.178Z,13.84
2023-08-17T17:03:44.782Z,13.80
2023-08-17T17:06:47.994Z,13.77
2023-08-17T17:09:52.541Z,13.81
2023-08-17T17:12:56.755Z,13.87
2023-08-17T17:15:59.938Z,13.91
2023-08-17T17:19:04.303Z,13.93
2023-08-17T17:22:08.550Z,14.02
2023-08-17T17:25:13.038Z,13.93
2023-08-17T17:28:16.745Z,13.84
2023-08-17T17:31:20.037Z,13.77
2023-08-17T17:34:24.694Z,13.74
2023-08-17T17:37:28.602Z,13.74
2023-08-17T17:40:32.169Z,13.74
2023-08-17T17:43:35.872Z,13.73
2023-08-17T17:46:40.035Z,13.67
2023-08-17T17:49:43.989Z,13.66
2023-08-17T17:52:48.838Z,13.67
2023-08-17T17:55:54.583Z,13.67
2023-08-17T17:58:57.791Z,13.71
2023-08-17T18:02:04.302Z,13.76
2023-08-17T18:05:07.804Z,13.76
2023-08-17T18:08:13.812Z,13.78
2023-08-17T18:11:17.347Z,13.73
2023-08-17T18:14:22.623Z,13.69
2023-08-17T18:17:26.220Z,13.65
2023-08-17T18:20:30.858Z,13.60
2023-08-17T18:23:37.625Z,13.59
2023-08-17T18:26:45.388Z,13.62
2023-08-17T18:29:48.901Z,13.63
2023-08-17T18:32:52.648Z,13.65
2023-08-17T18:35:56.869Z,13.67
2023-08-17T18:39:00.722Z,13.74
2023-08-17T18:42:05.610Z,13.78
2023-08-17T18:45:10.008Z,13.80
2023-08-17T18:48:14.092Z,13.84
2023-08-17T18:51:19.081Z,13.83
2023-08-17T18:54:22.920Z,13.84
2023-08-17T18:57:27.530Z,13.88
2023-08-17T19:00:32.172Z,13.85
2023-08-17T19:03:35.295Z,13.80
2023-08-17T19:06:38.883Z,13.77
2023-08-17T19:09:42.436Z,13.73
2023-08-17T19:12:46.729Z,13.74
2023-08-17T19:15:51.056Z,13.77
2023-08-17T19:18:54.957Z,13.84
2023-08-17T19:21:58.925Z,13.85
2023-08-17T19:25:03.497Z,13.87
2023-08-17T19:28:09.601Z,13.85
2023-08-17T19:31:13.198Z,13.85
2023-08-17T19:34:16.625Z,13.84
2023-08-17T19:37:20.491Z,13.87
2023-08-17T19:40:25.831Z,13.87
2023-08-17T19:43:29.465Z,13.90
2023-08-17T19:46:33.764Z,13.97
2023-08-17T19:49:37.600Z,14.01
2023-08-17T19:52:42.726Z,14.04
2023-08-17T19:55:45.823Z,14.07
2023-08-17T19:58:49.613Z,14.08
2023-08-17T20:01:53.820Z,14.11
2023-08-17T20:04:58.204Z,14.11
2023-08-17T20:08:01.621Z,14.07
2023-08-17T20:11:15.098Z,14.02
2023-08-17T20:14:20.006Z,14.05
2023-08-17T20:17:26.889Z,14.00
2023-08-17T20:20:30.230Z,13.98
2023-08-17T20:23:34.323Z,13.98
2023-08-17T20:26:37.452Z,13.93
2023-08-17T20:29:41.428Z,13.87
2023-08-17T20:32:44.980Z,13.81
2023-08-17T20:35:53.869Z,13.80
2023-08-17T20:38:57.528Z,13.73
2023-08-17T20:42:09.668Z,13.73
2023-08-17T20:45:12.988Z,13.66
2023-08-17T20:48:17.788Z,13.63
2023-08-17T20:51:21.789Z,13.59
2023-08-17T20:54:25.120Z,13.59
2023-08-17T20:57:29.897Z,13.52
2023-08-17T21:00:35.087Z,13.45
2023-08-17T21:03:38.767Z,13.42
2023-08-17T21:06:45.828Z,13.40
2023-08-17T21:09:49.600Z,13.39
2023-08-17T21:12:53.678Z,13.39
2023-08-17T21:16:08.083Z,13.42
2023-08-17T21:19:13.500Z,13.40
2023-08-17T21:22:19.145Z,13.42
2023-08-17T21:25:27.172Z,13.47
2023-08-17T21:28:30.866Z,13.56
2023-08-17T21:31:35.416Z,13.60
2023-08-17T21:34:40.302Z,13.60
2023-08-17T21:37:46.601Z,13.66
2023-08-17T21:40:58.503Z,13.69
2023-08-17T21:44:03.230Z,13.73
2023-08-17T21:47:11.021Z,13.73
2023-08-17T21:50:14.125Z,13.77
2023-08-17T21:53:17.853Z,13.76
2023-08-17T21:56:21.692Z,13.78
2023-08-17T21:59:26.184Z,13.77
2023-08-17T22:02:30.290Z,13.76
2023-08-17T22:05:34.037Z,13.74
2023-08-17T22:08:38.347Z,13.73
2023-08-17T22:11:42.563Z,13.70
2023-08-17T22:14:45.940Z,13.73
2023-08-17T22:17:51.598Z,13.71
2023-08-17T22:20:58.519Z,13.70
2023-08-17T22:24:01.334Z,13.74
2023-08-17T22:27:05.590Z,13.76
2023-08-17T22:30:09.773Z,13.76
2023-08-17T22:33:14.010Z,13.84
2023-08-17T22:36:17.178Z,13.85
2023-08-17T22:39:21.029Z,13.85
2023-08-17T22:42:24.883Z,13.94
2023-08-17T22:45:28.582Z,14.04
2023-08-17T22:48:33.110Z,14.14
2023-08-17T22:51:36.882Z,14.17
2023-08-17T22:54:41.200Z,14.24
2023-08-17T22:57:45.455Z,14.36
2023-08-17T23:00:49.178Z,14.50
2023-08-17T23:03:53.690Z,14.62
2023-08-17T23:06:57.877Z,14.77
2023-08-17T23:10:03.483Z,15.12
2023-08-17T23:16:25.059Z,16.04
2023-08-17T23:19:28.893Z,16.63
2023-08-17T23:22:33.213Z,16.74
2023-08-17T23:25:37.809Z,16.80
2023-08-17T23:28:41.547Z,17.25
2023-08-17T23:31:45.006Z,17.86
2023-08-17T23:34:49.029Z,19.00
2023-08-17T23:37:52.979Z,18.76
2023-08-17T23:40:56.577Z,18.59
2023-08-17T23:44:00.495Z,18.17
2023-08-17T23:47:04.279Z,18.04
2023-08-17T23:50:09.341Z,17.79
2023-08-17T23:56:31.422Z,18.24
2023-08-17T23:59:35.528Z,18.19
